Time;durP1;ratioP1;P1;durP2;ratioP2;P2;SDS_P1;SDS_P2;PMS_P1;PMS_P2;Temp;Humidity;BMP_temperature;BMP_pressure;BME280_temperature;BME280_humidity;BME280_pressure;Samples;Min_cycle;Max_cycle;Signal;HPM_P1;HPM_P2
2022/06/03 00:02:30;;;;;;;9.43;6.57;;;13.70;99.00;;;;;;4992486;28;20444;-46
2022/06/03 00:05:29;;;;;;;9.67;6.80;;;13.40;98.80;;;;;;4992379;28;20957;-47
2022/06/03 00:08:18;;;;;;;10.10;7.53;;;13.80;99.10;;;;;;4992370;28;20409;-48
2022/06/03 00:11:11;;;;;;;9.03;7.47;;;14.10;99.40;;;;;;4991849;28;20480;-47
2022/06/03 00:13:59;;;;;;;10.70;7.37;;;13.50;99.20;;;;;;4992235;28;20759;-48
2022/06/03 00:16:38;;;;;;;10.90;7.30;;;13.60;99.60;;;;;;4992113;28;20475;-48
2022/06/03 00:19:29;;;;;;;10.60;7.90;;;13.80;99.90;;;;;;4991924;28;20444;-47
2022/06/03 00:22:18;;;;;;;9.77;7.17;;;14.00;99.90;;;;;;4992235;28;20436;-48
2022/06/03 00:25:29;;;;;;;8.83;7.93;;;13.90;99.90;;;;;;4991950;28;20471;-48
2022/06/03 00:28:21;;;;;;;9.50;6.20;;;13.50;99.90;;;;;;4991872;28;20792;-48
2022/06/03 00:31:01;;;;;;;9.80;7.30;;;13.50;99.90;;;;;;4991597;28;20447;-48
2022/06/03 00:33:48;;;;;;;11.23;6.73;;;13.40;99.90;;;;;;4991835;28;20447;-47
2022/06/03 00:36:27;;;;;;;10.80;6.63;;;13.30;99.90;;;;;;4991886;28;20996;-47
2022/06/03 00:39:06;;;;;;;12.03;6.80;;;13.40;99.90;;;;;;4991647;28;20437;-48
2022/06/03 00:41:44;;;;;;;9.67;7.33;;;13.20;99.90;;;;;;4991926;28;20425;-48
2022/06/03 00:44:49;;;;;;;8.60;7.03;;;13.40;99.90;;;;;;4991813;28;20459;-47
2022/06/03 00:47:28;;;;;;;10.93;7.67;;;13.30;99.90;;;;;;4992070;28;21033;-48
2022/06/03 00:50:09;;;;;;;11.00;7.93;;;13.30;99.90;;;;;;4991294;28;20445;-49
2022/06/03 00:53:16;;;;;;;11.40;7.90;;;13.30;99.90;;;;;;4991677;28;20798;-47
2022/06/03 00:56:09;;;;;;;9.60;7.67;;;13.20;99.90;;;;;;4950578;28;20472;-48
2022/06/03 00:58:55;;;;;;;8.80;7.07;;;13.20;99.90;;;;;;4988710;28;21025;-48
2022/06/03 01:01:29;;;;;;;9.70;7.23;;;13.70;99.90;;;;;;4991616;28;20444;-48
2022/06/03 01:04:21;;;;;;;10.03;7.27;;;13.60;99.90;;;;;;4991344;28;20550;-49
2022/06/03 01:06:57;;;;;;;12.50;7.80;;;13.60;99.90;;;;;;4991775;28;20803;-48
2022/06/03 01:09:41;;;;;;;9.10;6.73;;;13.40;99.90;;;;;;4991302;28;20442;-48
2022/06/03 01:12:43;;;;;;;10.53;6.60;;;13.20;99.90;;;;;;4991691;28;20874;-49
2022/06/03 01:15:21;;;;;;;8.80;6.97;;;13.20;99.90;;;;;;4990090;28;20517;-49
2022/06/03 01:18:07;;;;;;;15.07;9.20;;;13.00;99.90;;;;;;4991398;28;20941;-48
2022/06/03 01:20:40;;;;;;;13.53;7.80;;;13.20;99.90;;;;;;4993068;28;20558;-48
2022/06/03 01:23:32;;;;;;;11.10;7.70;;;13.10;99.90;;;;;;4995295;28;20446;-48
2022/06/03 01:26:16;;;;;;;9.40;8.40;;;13.00;99.90;;;;;;4995396;28;20983;-48
2022/06/03 01:29:15;;;;;;;9.57;7.50;;;13.20;99.90;;;;;;4995189;28;20444;-48
2022/06/03 01:32:18;;;;;;;12.40;7.50;;;13.00;99.90;;;;;;4993808;28;20818;-48
2022/06/03 01:35:01;;;;;;;12.23;8.03;;;12.70;99.90;;;;;;4995072;28;20486;-48
2022/06/03 01:37:33;;;;;;;10.77;7.97;;;12.80;99.90;;;;;;4995513;28;20475;-48
2022/06/03 01:40:18;;;;;;;10.93;7.43;;;12.80;99.90;;;;;;4993859;28;20946;-48
2022/06/03 01:43:08;;;;;;;9.03;7.40;;;12.80;99.90;;;;;;4995499;28;20440;-49
2022/06/03 01:46:07;;;;;;;10.00;7.13;;;12.90;99.90;;;;;;4995522;28;20458;-48
2022/06/03 01:48:52;;;;;;;10.23;8.03;;;12.80;99.90;;;;;;4995561;28;20528;-48
2022/06/03 01:51:40;;;;;;;10.33;7.27;;;12.80;99.90;;;;;;4995864;28;20860;-48
2022/06/03 01:54:55;;;;;;;8.93;7.47;;;12.70;99.90;;;;;;4996498;28;20947;-47
2022/06/03 01:57:44;;;;;;;9.37;7.07;;;12.70;99.90;;;;;;4972048;28;20556;-48
2022/06/03 02:00:28;;;;;;;10.63;7.53;;;12.80;99.90;;;;;;4995459;28;20801;-48
2022/06/03 02:03:42;;;;;;;9.67;8.20;;;12.80;99.90;;;;;;4995262;28;20785;-48
2022/06/03 02:06:38;;;;;;;16.83;8.53;;;13.10;99.90;;;;;;4994863;28;20522;-48
2022/06/03 02:09:35;;;;;;;10.50;8.50;;;12.80;99.90;;;;;;4994131;28;20434;-49
2022/06/03 02:12:12;;;;;;;9.57;7.13;;;12.60;99.90;;;;;;4992955;28;20453;-47
2022/06/03 02:15:14;;;;;;;9.90;7.47;;;12.50;99.90;;;;;;4994347;28;20485;-48
2022/06/03 02:18:12;;;;;;;10.47;7.63;;;12.50;99.90;;;;;;4994199;28;20478;-49
2022/06/03 02:21:06;;;;;;;13.80;8.77;;;12.40;99.90;;;;;;4994130;28;20434;-48
2022/06/03 02:24:09;;;;;;;13.23;7.33;;;12.90;99.90;;;;;;4994158;28;20438;-48
2022/06/03 02:27:01;;;;;;;10.67;8.03;;;12.40;99.90;;;;;;4994386;28;20442;-47
2022/06/03 02:33:07;;;;;;;9.57;8.20;;;12.40;99.90;;;;;;4993453;28;20412;-47
2022/06/03 02:36:01;;;;;;;14.00;8.47;;;12.50;99.90;;;;;;4990765;28;20484;-48
2022/06/03 02:38:43;;;;;;;20.23;9.10;;;12.20;99.90;;;;;;4993636;28;20479;-48
2022/06/03 02:41:38;;;;;;;15.70;9.10;;;12.40;99.90;;;;;;4994247;28;20556;-47
2022/06/03 02:44:23;;;;;;;13.70;11.27;;;12.30;99.90;;;;;;4994563;28;20546;-47
2022/06/03 02:47:15;;;;;;;20.97;12.00;;;12.30;99.90;;;;;;4994373;28;20425;-47
2022/06/03 02:50:00;;;;;;;17.77;12.13;;;12.70;99.90;;;;;;4985504;28;20862;-47
2022/06/03 02:52:59;;;;;;;24.57;12.47;;;12.20;99.90;;;;;;4994290;28;20781;-47
2022/06/03 02:55:54;;;;;;;15.00;11.47;;;11.70;99.90;;;;;;4994120;28;20459;-47
2022/06/03 02:58:49;;;;;;;15.63;12.00;;;12.20;99.90;;;;;;4994084;28;21041;-48
2022/06/03 03:01:46;;;;;;;15.93;10.17;;;12.80;99.90;;;;;;4994011;28;20440;-48
2022/06/03 03:04:29;;;;;;;14.13;11.37;;;12.20;99.90;;;;;;4993618;28;20466;-46
2022/06/03 03:07:21;;;;;;;13.13;9.90;;;12.40;99.90;;;;;;4992611;28;20934;-48
2022/06/03 03:10:05;;;;;;;12.67;9.30;;;12.10;99.90;;;;;;4993262;28;20623;-47
2022/06/03 03:13:05;;;;;;;15.27;9.33;;;12.20;99.90;;;;;;4993482;28;20430;-48
2022/06/03 03:16:03;;;;;;;9.07;8.13;;;12.10;99.90;;;;;;4993636;28;20473;-48
2022/06/03 03:19:21;;;;;;;12.73;9.10;;;12.20;99.90;;;;;;4991569;28;20485;-48
2022/06/03 03:22:17;;;;;;;11.40;9.23;;;12.30;99.90;;;;;;4993276;28;20430;-48
2022/06/03 03:25:11;;;;;;;13.73;9.10;;;12.30;99.90;;;;;;4972443;28;20476;-48
2022/06/03 03:28:17;;;;;;;11.67;8.67;;;12.20;99.90;;;;;;4984579;28;20459;-47
2022/06/03 03:30:58;;;;;;;10.93;8.07;;;12.10;99.90;;;;;;4992976;28;20469;-48
2022/06/03 03:33:45;;;;;;;13.50;8.83;;;12.10;99.90;;;;;;4993492;28;20759;-47
2022/06/03 03:36:34;;;;;;;11.30;7.73;;;11.90;99.90;;;;;;4993171;28;20409;-48
2022/06/03 03:39:28;;;;;;;13.53;6.97;;;12.20;99.90;;;;;;4992511;28;20477;-48
2022/06/03 03:42:14;;;;;;;12.10;7.57;;;12.30;99.90;;;;;;4992555;28;20448;-48
2022/06/03 03:45:20;;;;;;;10.83;7.57;;;12.50;99.90;;;;;;4991678;28;20457;-48
2022/06/03 03:48:34;;;;;;;10.83;8.07;;;12.70;99.90;;;;;;4993052;28;20548;-47
2022/06/03 03:51:14;;;;;;;12.67;9.10;;;12.60;99.90;;;;;;4992677;28;20467;-47
2022/06/03 03:54:21;;;;;;;16.70;8.83;;;12.60;99.90;;;;;;4992532;28;20421;-47
2022/06/03 03:57:18;;;;;;;13.10;8.10;;;12.50;99.90;;;;;;4992757;28;20458;-48
2022/06/03 04:00:13;;;;;;;14.13;8.30;;;12.20;99.90;;;;;;4988977;28;20457;-48
2022/06/03 04:03:02;;;;;;;16.73;9.50;;;12.70;99.90;;;;;;4992707;28;20434;-48
2022/06/03 04:06:01;;;;;;;11.20;8.57;;;13.00;99.90;;;;;;4992598;28;20493;-47
2022/06/03 04:09:01;;;;;;;12.27;8.10;;;13.40;99.90;;;;;;4992254;28;20518;-48
2022/06/03 04:11:56;;;;;;;14.70;9.60;;;13.10;99.90;;;;;;4992445;28;20438;-48
2022/06/03 04:14:53;;;;;;;18.30;9.87;;;13.40;99.90;;;;;;5020894;23;20458;-52
2022/06/03 04:18:02;;;;;;;19.20;9.70;;;14.10;99.90;;;;;;5032108;28;20475;-52
2022/06/03 04:20:59;;;;;;;11.07;9.30;;;13.90;99.90;;;;;;5030461;28;20449;-50
2022/06/03 04:23:58;;;;;;;14.43;9.23;;;14.20;99.90;;;;;;5032287;28;20443;-52
2022/06/03 04:26:58;;;;;;;21.83;10.90;;;14.30;99.90;;;;;;5031870;28;20457;-51
2022/06/03 04:30:04;;;;;;;13.67;9.40;;;14.60;99.90;;;;;;5031845;28;20835;-52
2022/06/03 04:33:19;;;;;;;13.20;9.83;;;14.80;99.90;;;;;;5032193;28;20439;-51
2022/06/03 04:36:22;;;;;;;13.10;10.07;;;15.10;99.90;;;;;;4951502;29;20542;-52
2022/06/03 04:39:24;;;;;;;16.50;9.60;;;15.20;99.90;;;;;;5031374;28;20484;-52
2022/06/03 04:42:31;;;;;;;15.43;9.47;;;15.30;99.90;;;;;;5030312;28;20447;-52
2022/06/03 04:45:26;;;;;;;11.90;9.57;;;15.50;99.90;;;;;;5031410;28;20466;-51
2022/06/03 04:48:23;;;;;;;17.67;10.40;;;15.90;99.90;;;;;;5031696;28;20431;-52
2022/06/03 04:51:43;;;;;;;10.20;9.20;;;15.90;99.90;;;;;;5031383;28;20441;-52
2022/06/03 04:54:45;;;;;;;13.10;10.20;;;16.00;99.90;;;;;;5031616;28;20427;-52
2022/06/03 04:57:57;;;;;;;9.10;8.17;;;16.20;99.90;;;;;;5031578;28;20447;-51
2022/06/03 05:00:44;;;;;;;11.67;9.60;;;16.20;99.70;;;;;;5031387;28;20920;-52
2022/06/03 05:03:50;;;;;;;13.77;7.63;;;16.50;99.70;;;;;;5031407;28;20489;-52
2022/06/03 05:07:09;;;;;;;10.10;8.23;;;16.70;99.00;;;;;;5031294;28;20936;-52
2022/06/03 05:10:17;;;;;;;11.63;7.60;;;16.90;98.50;;;;;;4950687;29;20549;-52
2022/06/03 05:13:09;;;;;;;8.20;6.50;;;17.20;98.20;;;;;;4950853;29;21196;-51
2022/06/03 05:16:24;;;;;;;6.60;6.00;;;17.10;97.10;;;;;;5022643;28;20513;-52
2022/06/03 05:19:34;;;;;;;7.03;5.33;;;17.20;96.60;;;;;;5031299;28;20472;-52
2022/06/03 05:22:36;;;;;;;7.63;5.23;;;17.40;95.80;;;;;;5030190;28;20448;-51
2022/06/03 05:25:33;;;;;;;11.47;5.80;;;17.40;95.30;;;;;;5031008;28;20444;-52
2022/06/03 05:28:44;;;;;;;6.53;5.83;;;17.90;95.60;;;;;;5011245;28;20736;-52
2022/06/03 05:31:30;;;;;;;5.30;4.63;;;17.70;94.70;;;;;;5030803;28;20456;-52
2022/06/03 05:34:36;;;;;;;6.07;5.47;;;17.70;94.30;;;;;;5030848;28;20433;-52
2022/06/03 05:37:29;;;;;;;6.00;5.50;;;17.90;93.80;;;;;;5031022;28;20459;-52
2022/06/03 05:40:06;;;;;;;9.57;5.50;;;18.30;93.80;;;;;;5031111;28;20514;-51
2022/06/03 05:43:04;;;;;;;7.63;5.40;;;18.40;93.60;;;;;;5031191;28;20462;-52
2022/06/03 05:46:02;;;;;;;7.67;5.20;;;18.20;92.90;;;;;;5029050;28;20487;-52
2022/06/03 05:48:52;;;;;;;5.47;4.97;;;18.60;93.30;;;;;;5030430;28;20442;-52
2022/06/03 05:51:44;;;;;;;6.43;4.77;;;18.60;92.60;;;;;;5031252;28;20437;-52
2022/06/03 05:54:21;;;;;;;5.50;4.10;;;18.40;91.60;;;;;;5030760;28;20442;-52
2022/06/03 05:56:53;;;;;;;6.83;3.70;;;19.10;91.60;;;;;;5030529;28;20943;-52
2022/06/03 06:00:01;;;;;;;5.20;3.87;;;18.80;91.40;;;;;;5030555;28;20484;-52
2022/06/03 06:02:35;;;;;;;6.47;4.00;;;18.90;90.60;;;;;;5010969;28;20462;-52
2022/06/03 06:05:17;;;;;;;6.13;3.67;;;18.90;90.30;;;;;;5030245;28;20454;-52
2022/06/03 06:07:52;;;;;;;5.23;2.93;;;19.10;89.00;;;;;;5032532;28;20441;-52
2022/06/03 06:10:34;;;;;;;4.47;3.53;;;19.20;89.00;;;;;;5034615;28;20922;-52
2022/06/03 06:13:21;;;;;;;3.27;2.97;;;19.10;87.00;;;;;;5034973;28;20521;-52
2022/06/03 06:16:01;;;;;;;7.57;2.83;;;19.50;87.10;;;;;;5034166;28;20484;-52
2022/06/03 06:18:40;;;;;;;6.17;2.73;;;19.30;85.50;;;;;;5034181;28;20588;-52
2022/06/03 06:21:22;;;;;;;3.60;2.20;;;19.40;85.70;;;;;;5034671;28;20468;-52
2022/06/03 06:23:58;;;;;;;3.50;2.80;;;19.50;84.90;;;;;;5033733;28;20954;-53
2022/06/03 06:26:49;;;;;;;3.83;2.20;;;19.60;83.90;;;;;;5033292;28;20492;-53
2022/06/03 06:29:41;;;;;;;4.40;3.20;;;19.60;82.80;;;;;;5032358;28;20436;-51
2022/06/03 06:32:32;;;;;;;4.70;3.30;;;19.90;83.20;;;;;;5034123;28;20432;-52
2022/06/03 06:35:43;;;;;;;3.73;2.80;;;19.30;82.00;;;;;;5030670;28;20533;-51
2022/06/03 06:38:15;;;;;;;5.13;2.63;;;19.70;82.10;;;;;;5033647;28;20501;-51
2022/06/03 06:40:59;;;;;;;3.70;2.90;;;19.50;82.10;;;;;;5033500;28;20873;-51
2022/06/03 06:43:39;;;;;;;2.87;2.33;;;20.00;82.50;;;;;;5034189;28;20437;-51
2022/06/03 06:46:16;;;;;;;4.30;2.37;;;20.40;82.80;;;;;;5033300;28;20465;-50
2022/06/03 06:48:55;;;;;;;14.77;2.43;;;19.90;81.70;;;;;;5033004;28;20430;-53
2022/06/03 06:51:43;;;;;;;4.53;2.67;;;20.10;80.80;;;;;;5033009;28;20462;-51
2022/06/03 06:54:16;;;;;;;2.93;2.43;;;19.70;80.50;;;;;;5033092;28;20435;-51
2022/06/03 06:56:48;;;;;;;4.50;2.40;;;19.70;80.00;;;;;;5033186;28;20466;-51
2022/06/03 06:59:21;;;;;;;2.50;1.87;;;19.80;80.00;;;;;;5032637;28;20493;-51
2022/06/03 07:01:59;;;;;;;5.20;3.00;;;19.70;80.20;;;;;;5031895;28;20455;-50
2022/06/03 07:04:29;;;;;;;4.90;2.40;;;19.80;80.00;;;;;;5032922;28;20540;-50
2022/06/03 07:07:01;;;;;;;6.73;3.13;;;19.60;80.10;;;;;;5033067;28;20951;-52
2022/06/03 07:09:38;;;;;;;4.57;2.80;;;19.50;80.30;;;;;;5032615;28;20440;-53
2022/06/03 07:12:11;;;;;;;4.20;2.30;;;19.70;80.00;;;;;;5033119;28;20510;-51
2022/06/03 07:14:47;;;;;;;3.27;2.57;;;19.90;79.50;;;;;;5032694;28;20982;-51
2022/06/03 07:20:15;;;;;;;6.57;2.40;;;19.80;78.20;;;;;;5032260;28;20485;-53
2022/06/03 07:22:48;;;;;;;3.30;2.00;;;19.80;78.10;;;;;;5032951;28;20439;-51
2022/06/03 07:25:24;;;;;;;2.63;2.37;;;19.80;77.90;;;;;;5032003;28;20466;-51
2022/06/03 07:27:58;;;;;;;3.53;1.80;;;19.80;77.50;;;;;;5032553;28;20427;-50
2022/06/03 07:30:31;;;;;;;5.10;2.60;;;19.80;78.10;;;;;;5031846;28;20445;-50
2022/06/03 07:33:02;;;;;;;5.23;3.90;;;19.80;77.90;;;;;;5031923;28;20439;-51
2022/06/03 07:35:34;;;;;;;4.33;2.77;;;19.90;78.00;;;;;;5032502;28;20862;-51
2022/06/03 07:38:05;;;;;;;2.90;2.23;;;19.90;77.30;;;;;;5032301;28;20501;-52
2022/06/03 07:40:38;;;;;;;3.30;2.20;;;19.90;76.80;;;;;;5032044;28;20441;-50
2022/06/03 07:43:13;;;;;;;3.20;2.50;;;19.90;75.80;;;;;;5032284;28;20435;-52
2022/06/03 07:45:43;;;;;;;2.13;1.90;;;19.90;75.50;;;;;;5031900;28;20447;-53
2022/06/03 07:48:14;;;;;;;2.90;2.40;;;20.20;75.40;;;;;;5032198;28;20534;-52
2022/06/03 07:50:49;;;;;;;3.10;2.10;;;19.90;74.20;;;;;;5031958;28;20439;-53
2022/06/03 07:53:21;;;;;;;2.50;1.73;;;20.10;74.10;;;;;;5031860;28;20442;-53
2022/06/03 07:55:53;;;;;;;4.33;1.80;;;20.00;74.00;;;;;;5031894;28;20791;-50
2022/06/03 07:58:23;;;;;;;2.60;2.30;;;19.90;73.10;;;;;;5030750;28;20479;-50
2022/06/03 08:00:49;;;;;;;3.73;2.00;;;20.30;73.30;;;;;;5031910;28;20442;-50
2022/06/03 08:03:18;;;;;;;2.43;2.10;;;19.90;73.00;;;;;;5031982;28;20508;-50
2022/06/03 08:05:47;;;;;;;3.43;2.13;;;20.10;72.80;;;;;;5031887;28;20452;-53
2022/06/03 08:11:05;;;;;;;5.33;1.83;;;20.30;72.30;;;;;;5031518;28;20463;-51
2022/06/03 08:13:49;;;;;;;2.50;2.00;;;20.10;71.30;;;;;;5031898;28;20453;-51
2022/06/03 08:16:23;;;;;;;2.67;1.87;;;20.20;70.80;;;;;;5031583;28;20481;-51
2022/06/03 08:18:50;;;;;;;4.10;2.93;;;19.80;71.00;;;;;;5031541;28;20470;-51
2022/06/03 08:21:24;;;;;;;4.10;3.07;;;20.00;70.40;;;;;;5031468;28;20938;-51
2022/06/03 08:23:52;;;;;;;4.07;2.00;;;20.20;70.20;;;;;;5031809;28;20451;-51
2022/06/03 08:26:23;;;;;;;4.43;2.20;;;20.30;69.60;;;;;;5031466;28;20962;-52
2022/06/03 08:28:55;;;;;;;2.93;2.20;;;20.00;68.70;;;;;;5031442;28;20426;-52
2022/06/03 08:31:24;;;;;;;2.77;2.57;;;20.20;69.60;;;;;;5031042;28;20446;-52
2022/06/03 08:33:54;;;;;;;2.87;2.67;;;20.30;69.30;;;;;;5031288;28;20451;-52
2022/06/03 08:36:25;;;;;;;6.43;2.27;;;20.30;68.70;;;;;;5030053;28;20460;-51
2022/06/03 08:38:55;;;;;;;3.90;2.03;;;20.20;68.20;;;;;;5030811;28;20566;-52
2022/06/03 08:41:39;;;;;;;2.33;2.10;;;20.20;68.50;;;;;;5030938;28;20445;-52
2022/06/03 08:44:21;;;;;;;3.07;2.10;;;20.10;68.10;;;;;;5031496;28;20460;-51
2022/06/03 08:46:53;;;;;;;2.10;1.90;;;20.30;68.00;;;;;;5031536;28;20869;-52
2022/06/03 08:49:23;;;;;;;2.10;1.67;;;20.30;68.10;;;;;;5031193;28;20516;-52
2022/06/03 08:51:53;;;;;;;4.57;2.83;;;20.00;67.70;;;;;;5030830;28;20443;-51
2022/06/03 08:54:27;;;;;;;2.93;2.33;;;20.20;67.60;;;;;;5030843;28;20526;-52
2022/06/03 08:56:58;;;;;;;4.00;3.33;;;20.10;67.60;;;;;;5030727;28;20512;-52
2022/06/03 08:59:33;;;;;;;3.17;2.00;;;20.30;67.40;;;;;;5030573;28;20453;-52
2022/06/03 09:02:04;;;;;;;5.90;3.00;;;20.40;66.60;;;;;;5029546;28;20443;-52
2022/06/03 09:04:37;;;;;;;2.50;2.30;;;20.10;66.30;;;;;;5031551;28;20520;-52
2022/06/03 09:07:10;;;;;;;2.67;2.40;;;20.20;66.50;;;;;;5031177;28;20447;-51
2022/06/03 09:09:43;;;;;;;5.97;2.73;;;20.30;66.20;;;;;;5029796;28;20983;-52
2022/06/03 09:12:19;;;;;;;3.23;2.57;;;19.90;65.50;;;;;;5029402;28;20823;-51
2022/06/03 09:14:49;;;;;;;2.40;2.20;;;20.40;65.90;;;;;;5030570;28;20517;-51
2022/06/03 09:17:40;;;;;;;2.87;2.30;;;20.50;65.40;;;;;;5030971;28;20439;-52
2022/06/03 09:20:12;;;;;;;2.53;2.00;;;20.30;64.40;;;;;;5030848;28;20479;-52
2022/06/03 09:22:40;;;;;;;2.90;2.40;;;20.20;63.60;;;;;;5030545;28;20428;-52
2022/06/03 09:25:11;;;;;;;4.53;2.30;;;20.40;64.10;;;;;;5030587;28;20459;-52
2022/06/03 09:27:39;;;;;;;2.50;2.30;;;20.40;64.00;;;;;;5030841;28;20440;-52
2022/06/03 09:30:09;;;;;;;2.10;1.90;;;20.50;63.20;;;;;;5029277;28;20552;-52
2022/06/03 09:32:44;;;;;;;2.40;2.20;;;20.50;63.50;;;;;;5030979;28;20439;-52
2022/06/03 09:35:17;;;;;;;2.17;1.93;;;20.60;63.80;;;;;;5030592;28;20463;-51
2022/06/03 09:37:48;;;;;;;4.07;2.40;;;20.60;64.00;;;;;;5030509;28;20454;-51
2022/06/03 09:40:19;;;;;;;19.27;2.37;;;20.50;62.50;;;;;;5030544;28;20562;-51
2022/06/03 09:42:50;;;;;;;4.80;2.33;;;20.50;63.10;;;;;;5034418;28;20435;-52
2022/06/03 09:45:20;;;;;;;4.10;2.77;;;20.60;62.90;;;;;;5034308;28;20813;-51
2022/06/03 09:47:47;;;;;;;3.57;2.47;;;20.70;62.50;;;;;;5032846;28;20967;-52
2022/06/03 09:50:15;;;;;;;4.80;2.57;;;20.60;62.50;;;;;;5034168;28;20920;-52
2022/06/03 09:52:42;;;;;;;2.30;2.03;;;20.80;61.90;;;;;;5034712;28;20578;-52
2022/06/03 09:55:24;;;;;;;2.87;2.27;;;20.90;61.20;;;;;;5032702;28;20469;-52
2022/06/03 09:57:53;;;;;;;2.83;2.13;;;20.70;60.50;;;;;;5034651;28;20447;-52
2022/06/03 10:00:25;;;;;;;2.50;2.10;;;21.00;61.30;;;;;;5034268;28;20491;-52
2022/06/03 10:02:52;;;;;;;2.60;2.40;;;20.80;61.70;;;;;;5034741;28;20443;-52
2022/06/03 10:05:20;;;;;;;7.20;2.60;;;20.80;62.50;;;;;;5034135;28;20519;-51
2022/06/03 10:07:50;;;;;;;3.00;2.10;;;20.80;62.50;;;;;;5034127;28;20437;-51
2022/06/03 10:13:06;;;;;;;4.80;3.07;;;20.50;61.90;;;;;;5032836;28;20781;-51
2022/06/03 10:15:41;;;;;;;2.43;2.23;;;20.90;62.60;;;;;;5056344;23;20496;-46
2022/06/03 10:18:16;;;;;;;5.60;2.60;;;20.90;64.20;;;;;;5033890;28;20474;-47
2022/06/03 10:20:43;;;;;;;2.93;2.13;;;20.60;63.10;;;;;;5033425;28;20477;-45
2022/06/03 10:23:10;;;;;;;4.37;2.53;;;21.00;63.50;;;;;;5033704;28;20498;-45
2022/06/03 10:25:38;;;;;;;3.20;2.17;;;21.10;63.30;;;;;;5033791;28;20464;-46
2022/06/03 10:28:06;;;;;;;5.60;3.00;;;20.90;62.50;;;;;;5033831;28;20442;-46
2022/06/03 10:30:39;;;;;;;2.80;2.50;;;20.80;62.50;;;;;;5033241;28;20595;-47
2022/06/03 10:33:07;;;;;;;2.43;2.10;;;21.20;62.90;;;;;;5033630;28;20451;-48
2022/06/03 10:35:38;;;;;;;2.40;2.20;;;20.80;62.30;;;;;;5033699;28;20461;-46
2022/06/03 10:38:06;;;;;;;3.40;2.07;;;20.90;62.40;;;;;;5032218;28;20457;-46
2022/06/03 10:40:36;;;;;;;3.03;2.80;;;21.00;62.80;;;;;;5033357;28;20898;-47
2022/06/03 10:43:04;;;;;;;8.43;2.30;;;20.90;62.10;;;;;;5033369;28;20459;-47
2022/06/03 10:45:35;;;;;;;2.90;2.07;;;21.10;61.60;;;;;;5033580;28;20451;-47
2022/06/03 10:48:18;;;;;;;3.33;2.80;;;21.10;60.70;;;;;;5033227;28;20429;-46
2022/06/03 10:50:45;;;;;;;5.50;2.50;;;20.90;60.30;;;;;;5032991;28;20642;-47
2022/06/03 11:01:49;;;;;;;3.83;2.30;;;21.20;60.60;;;;;;5032890;28;20441;-48
2022/06/03 11:04:33;;;;;;;3.93;2.13;;;21.20;60.60;;;;;;5032918;28;20449;-46
2022/06/03 11:07:02;;;;;;;3.80;2.10;;;21.10;60.20;;;;;;5033243;28;21012;-47
2022/06/03 11:09:30;;;;;;;4.53;2.10;;;20.80;60.60;;;;;;5032464;28;20933;-47
2022/06/03 11:12:00;;;;;;;2.20;1.90;;;21.40;61.50;;;;;;5032987;28;20488;-47
2022/06/03 11:14:38;;;;;;;4.27;2.20;;;21.30;61.00;;;;;;5032857;28;20453;-47
2022/06/03 11:17:11;;;;;;;2.40;2.17;;;21.40;60.80;;;;;;5032720;28;20537;-46
2022/06/03 11:19:40;;;;;;;3.00;2.50;;;21.50;61.10;;;;;;5032514;28;20488;-46
2022/06/03 11:22:28;;;;;;;3.33;2.37;;;21.50;61.10;;;;;;5032479;28;20445;-47
2022/06/03 11:25:02;;;;;;;3.03;2.20;;;21.40;61.00;;;;;;5032517;28;20565;-46
2022/06/03 11:27:35;;;;;;;3.07;2.20;;;21.70;61.60;;;;;;5032263;28;20465;-48
2022/06/03 11:30:11;;;;;;;2.33;1.93;;;21.50;61.50;;;;;;5030970;28;20561;-46
2022/06/03 11:32:43;;;;;;;2.27;2.07;;;21.60;61.50;;;;;;5032530;28;20429;-47
2022/06/03 11:35:16;;;;;;;2.30;2.10;;;21.60;61.30;;;;;;5032584;28;20457;-47
2022/06/03 11:37:48;;;;;;;2.70;2.50;;;21.60;60.90;;;;;;5032131;28;20421;-47
2022/06/03 11:40:22;;;;;;;4.43;2.57;;;21.70;60.80;;;;;;5032080;28;21027;-46
2022/06/03 11:42:55;;;;;;;2.87;2.57;;;21.30;60.00;;;;;;5031914;28;20427;-47
2022/06/03 11:45:25;;;;;;;2.33;2.13;;;21.60;59.60;;;;;;5032086;28;20462;-46
2022/06/03 11:47:57;;;;;;;2.33;1.83;;;21.80;59.90;;;;;;5032068;28;20537;-47
2022/06/03 11:50:26;;;;;;;3.90;2.13;;;21.80;59.00;;;;;;5031753;28;20443;-46
2022/06/03 11:52:55;;;;;;;3.13;1.90;;;21.90;58.90;;;;;;5030760;28;20473;-47
2022/06/03 11:55:25;;;;;;;3.70;2.03;;;21.90;58.10;;;;;;5031437;28;20457;-47
2022/06/03 11:58:07;;;;;;;2.70;2.30;;;21.90;57.80;;;;;;5031799;28;20442;-47
2022/06/03 12:00:39;;;;;;;2.07;1.87;;;21.80;57.20;;;;;;5030269;28;20478;-49
2022/06/03 12:03:24;;;;;;;6.33;1.80;;;21.50;57.40;;;;;;5031855;28;20438;-48
2022/06/03 12:05:57;;;;;;;3.20;1.90;;;22.00;57.70;;;;;;5030636;28;20465;-46
2022/06/03 12:08:29;;;;;;;4.93;2.33;;;21.90;57.70;;;;;;5031371;28;20457;-48
2022/06/03 12:11:00;;;;;;;2.30;1.93;;;22.00;57.80;;;;;;5031208;28;20434;-48
2022/06/03 12:13:30;;;;;;;2.83;2.37;;;22.00;57.20;;;;;;5031257;28;20527;-47
2022/06/03 12:16:06;;;;;;;2.10;1.90;;;22.20;57.60;;;;;;5031050;28;20973;-47
2022/06/03 12:18:57;;;;;;;3.63;2.63;;;22.10;56.60;;;;;;5030970;28;20796;-47
2022/06/03 12:21:56;;;;;;;3.70;2.13;;;22.10;56.10;;;;;;5030010;28;20486;-48
2022/06/03 12:24:44;;;;;;;4.43;1.97;;;22.40;56.10;;;;;;5027364;28;20565;-48
2022/06/03 12:27:19;;;;;;;2.77;2.10;;;22.50;56.10;;;;;;5031154;28;20476;-48
2022/06/03 12:29:55;;;;;;;2.50;2.30;;;22.40;56.40;;;;;;5031111;28;20469;-46
2022/06/03 12:32:27;;;;;;;2.93;2.40;;;22.20;56.00;;;;;;5030594;28;20454;-47
2022/06/03 12:35:34;;;;;;;3.50;2.00;;;22.60;56.50;;;;;;5031304;28;20468;-46
2022/06/03 12:38:31;;;;;;;10.10;2.53;;;22.70;55.60;;;;;;5030936;28;20454;-48
2022/06/03 12:41:00;;;;;;;6.00;2.20;;;22.60;54.80;;;;;;5030906;28;20490;-46
2022/06/03 12:43:32;;;;;;;4.37;1.90;;;22.30;55.00;;;;;;5031094;28;20444;-48
2022/06/03 12:46:01;;;;;;;4.73;2.33;;;22.50;55.40;;;;;;5031022;28;20455;-45
2022/06/03 12:48:46;;;;;;;5.00;2.00;;;22.60;55.50;;;;;;5030758;28;20787;-46
2022/06/03 12:51:23;;;;;;;3.87;2.20;;;22.40;55.20;;;;;;5030912;28;20455;-48
2022/06/03 12:53:51;;;;;;;2.07;1.87;;;22.80;55.90;;;;;;5031126;28;20833;-46
2022/06/03 12:56:40;;;;;;;2.33;1.90;;;22.50;55.90;;;;;;5030835;28;20459;-46
2022/06/03 12:59:18;;;;;;;4.97;3.40;;;23.00;56.10;;;;;;5030457;28;20460;-49
2022/06/03 13:01:57;;;;;;;2.23;2.00;;;22.80;56.10;;;;;;5031072;28;20562;-47
2022/06/03 13:05:03;;;;;;;3.70;2.33;;;23.00;55.60;;;;;;5030964;28;20431;-46
2022/06/03 13:07:34;;;;;;;3.63;2.30;;;23.20;55.30;;;;;;5030933;28;20860;-47
2022/06/03 13:10:24;;;;;;;3.60;2.00;;;23.00;55.00;;;;;;5030683;28;20441;-46
2022/06/03 13:12:53;;;;;;;4.37;1.90;;;23.20;54.20;;;;;;5025993;28;20453;-48
2022/06/03 13:15:45;;;;;;;3.07;2.07;;;22.70;54.10;;;;;;5029421;28;20518;-47
2022/06/03 13:18:18;;;;;;;3.67;2.30;;;23.00;53.60;;;;;;5034900;28;20455;-48
2022/06/03 13:20:47;;;;;;;3.60;2.20;;;23.10;53.80;;;;;;5034576;28;20852;-47
2022/06/03 13:23:33;;;;;;;2.00;1.90;;;23.00;53.60;;;;;;5034477;28;20473;-49
2022/06/03 13:26:34;;;;;;;2.57;2.10;;;22.80;53.60;;;;;;5034589;28;20466;-46
2022/06/03 13:29:03;;;;;;;5.53;2.60;;;23.00;53.90;;;;;;5034260;28;20454;-47
2022/06/03 13:32:01;;;;;;;3.30;2.03;;;23.00;53.90;;;;;;5033407;28;20430;-48
2022/06/03 13:34:31;;;;;;;2.10;1.80;;;23.30;53.70;;;;;;5034337;28;20448;-49
2022/06/03 13:37:28;;;;;;;3.40;2.03;;;22.70;53.30;;;;;;5034452;28;20778;-48
2022/06/03 13:40:22;;;;;;;2.37;1.97;;;23.10;53.00;;;;;;5033704;28;20447;-47
2022/06/03 13:43:22;;;;;;;4.10;2.33;;;23.10;52.10;;;;;;5030735;28;20464;-47
2022/06/03 13:45:57;;;;;;;3.10;2.10;;;23.20;51.90;;;;;;5033437;28;20455;-48
2022/06/03 13:48:30;;;;;;;3.93;2.40;;;23.20;51.70;;;;;;5033370;28;20440;-46
2022/06/03 13:50:57;;;;;;;3.20;2.37;;;23.20;52.10;;;;;;5033961;28;20441;-48
2022/06/03 13:53:29;;;;;;;3.77;2.43;;;23.30;51.80;;;;;;5034077;28;20443;-46
2022/06/03 13:56:04;;;;;;;3.00;2.60;;;23.30;52.20;;;;;;5034047;28;20503;-48
2022/06/03 13:58:34;;;;;;;4.77;2.73;;;23.40;52.20;;;;;;5033660;28;20750;-47
2022/06/03 14:01:06;;;;;;;2.73;2.03;;;23.40;52.00;;;;;;5034232;28;20473;-46
2022/06/03 14:03:36;;;;;;;2.97;2.07;;;23.50;51.40;;;;;;5034229;28;20520;-46
2022/06/03 14:06:08;;;;;;;2.43;1.93;;;23.60;50.90;;;;;;5033940;28;20480;-48
2022/06/03 14:08:39;;;;;;;5.23;2.00;;;23.60;50.30;;;;;;5033253;28;20782;-48
2022/06/03 14:11:13;;;;;;;2.10;1.90;;;23.60;49.90;;;;;;5033411;28;20921;-47
2022/06/03 14:13:47;;;;;;;2.30;2.10;;;23.60;50.30;;;;;;5032385;28;20454;-48
2022/06/03 14:16:19;;;;;;;3.43;1.87;;;23.60;50.10;;;;;;5033472;28;20469;-47
2022/06/03 14:18:52;;;;;;;3.67;1.80;;;23.60;49.70;;;;;;5033510;28;20942;-48
2022/06/03 14:21:25;;;;;;;3.17;1.80;;;23.60;49.90;;;;;;5033918;28;20515;-48
2022/06/03 14:23:54;;;;;;;2.13;1.90;;;23.50;49.40;;;;;;5033503;28;20446;-47